Time;durP1;ratioP1;P1;durP2;ratioP2;P2;SDS_P1;SDS_P2;PMS_P1;PMS_P2;Temp;Humidity;BMP_temperature;BMP_pressure;BME280_temperature;BME280_humidity;BME280_pressure;Samples;Min_cycle;Max_cycle;Signal;HPM_P1;HPM_P2
2022/04/01 00:00:49;;;;;;;4.57;1.37;;;;;;;;;;5093231;28;20288;-75
2022/04/01 00:03:17;;;;;;;5.17;1.70;;;;;;;;;;5095986;28;20257;-74
2022/04/01 00:05:44;;;;;;;4.17;1.37;;;;;;;;;;5104730;28;20286;-74
2022/04/01 00:08:11;;;;;;;6.00;1.20;;;;;;;;;;5085317;28;20668;-74
2022/04/01 00:10:38;;;;;;;3.63;1.27;;;;;;;;;;5071998;28;20669;-74
2022/04/01 00:13:07;;;;;;;4.67;1.13;;;;;;;;;;5081273;28;20244;-76
2022/04/01 00:15:35;;;;;;;4.17;1.50;;;;;;;;;;5091074;28;20615;-77
2022/04/01 00:18:03;;;;;;;4.90;1.43;;;;;;;;;;5083583;28;20226;-74
2022/04/01 00:20:31;;;;;;;6.77;1.50;;;;;;;;;;5085134;28;20203;-76
2022/04/01 00:22:58;;;;;;;4.80;1.20;;;;;;;;;;5085826;28;20209;-76
2022/04/01 00:25:26;;;;;;;3.87;0.97;;;;;;;;;;5072661;28;20237;-76
2022/04/01 00:27:54;;;;;;;6.87;1.30;;;;;;;;;;5077788;28;20264;-76
2022/04/01 00:30:23;;;;;;;5.77;1.37;;;;;;;;;;5073571;28;20668;-77
2022/04/01 00:32:50;;;;;;;4.67;1.40;;;;;;;;;;5070941;28;20689;-76
2022/04/01 00:35:17;;;;;;;6.67;1.20;;;;;;;;;;5072168;28;20607;-76
2022/04/01 00:37:44;;;;;;;6.73;1.43;;;;;;;;;;5072052;28;20297;-77
2022/04/01 00:40:12;;;;;;;5.10;1.57;;;;;;;;;;5074580;28;20241;-77
2022/04/01 00:42:40;;;;;;;5.13;1.37;;;;;;;;;;5091896;28;20211;-76
2022/04/01 00:45:08;;;;;;;5.03;1.13;;;;;;;;;;5075407;28;20232;-77
2022/04/01 00:47:36;;;;;;;4.97;1.47;;;;;;;;;;5082459;28;20249;-76
2022/04/01 00:50:04;;;;;;;5.67;1.30;;;;;;;;;;5083080;28;20280;-77
2022/04/01 00:52:32;;;;;;;4.77;1.43;;;;;;;;;;5073145;28;20243;-76
2022/04/01 00:55:00;;;;;;;5.57;1.30;;;;;;;;;;5071833;28;20288;-76
2022/04/01 00:57:28;;;;;;;2.40;1.23;;;;;;;;;;5077389;28;20713;-76
2022/04/01 00:59:55;;;;;;;3.90;1.50;;;;;;;;;;5071915;28;20218;-75
2022/04/01 01:02:22;;;;;;;5.70;1.27;;;;;;;;;;5072952;28;20282;-74
2022/04/01 01:04:51;;;;;;;3.50;1.10;;;;;;;;;;5071430;28;20283;-75
2022/04/01 01:07:18;;;;;;;4.90;1.20;;;;;;;;;;5071402;28;20697;-74
2022/04/01 01:09:46;;;;;;;5.60;1.50;;;;;;;;;;5071594;28;20293;-74
2022/04/01 01:12:13;;;;;;;6.10;1.27;;;;;;;;;;5087204;28;20300;-77
2022/04/01 01:14:41;;;;;;;2.70;1.50;;;;;;;;;;5091785;28;20226;-74
2022/04/01 01:17:11;;;;;;;3.13;1.43;;;;;;;;;;5091831;28;20228;-74
2022/04/01 01:19:39;;;;;;;5.63;1.40;;;;;;;;;;5091717;28;20194;-76
2022/04/01 01:22:08;;;;;;;5.93;1.30;;;;;;;;;;5092066;28;20237;-77
2022/04/01 01:24:37;;;;;;;4.87;1.27;;;;;;;;;;5092062;28;20198;-75
2022/04/01 01:27:06;;;;;;;4.00;1.37;;;;;;;;;;5081446;28;20580;-74
2022/04/01 01:29:34;;;;;;;3.53;1.27;;;;;;;;;;5086005;28;20197;-74
2022/04/01 01:32:02;;;;;;;7.87;1.40;;;;;;;;;;5095043;28;20212;-74
2022/04/01 01:34:32;;;;;;;3.33;1.23;;;;;;;;;;5093048;28;20296;-74
2022/04/01 01:37:00;;;;;;;3.83;1.00;;;;;;;;;;5094724;28;20213;-74
2022/04/01 01:39:27;;;;;;;5.83;1.07;;;;;;;;;;5095738;28;20296;-77
2022/04/01 01:41:56;;;;;;;4.40;1.40;;;;;;;;;;5085704;28;20238;-74
2022/04/01 01:44:25;;;;;;;3.17;1.10;;;;;;;;;;5073763;28;20243;-75
2022/04/01 01:46:52;;;;;;;3.13;1.00;;;;;;;;;;5081327;28;20307;-75
2022/04/01 01:49:21;;;;;;;3.23;1.00;;;;;;;;;;5094537;28;20209;-74
2022/04/01 01:54:49;;;;;;;6.97;1.03;;;;;;;;;;5090016;28;20209;-75
2022/04/01 01:57:18;;;;;;;4.37;1.00;;;;;;;;;;5093696;28;20194;-75
2022/04/01 01:59:45;;;;;;;4.97;1.50;;;;;;;;;;5086210;28;20281;-75
2022/04/01 02:02:13;;;;;;;5.53;1.30;;;;;;;;;;5074650;28;20712;-74
2022/04/01 02:04:41;;;;;;;2.47;0.90;;;;;;;;;;5074537;28;20236;-75
2022/04/01 02:07:08;;;;;;;5.03;1.17;;;;;;;;;;5080215;28;20259;-74
2022/04/01 02:09:36;;;;;;;6.43;1.30;;;;;;;;;;5113516;28;20232;-75
2022/04/01 02:12:04;;;;;;;3.20;0.80;;;;;;;;;;5105534;28;20308;-74
2022/04/01 02:14:33;;;;;;;3.03;1.03;;;;;;;;;;5104527;28;20292;-74
2022/04/01 02:17:00;;;;;;;7.97;1.40;;;;;;;;;;5112479;28;20348;-75
2022/04/01 02:19:30;;;;;;;3.67;1.00;;;;;;;;;;5098798;28;20282;-74
2022/04/01 02:21:57;;;;;;;2.37;1.10;;;;;;;;;;5104609;28;20222;-74
2022/04/01 02:24:25;;;;;;;3.00;1.10;;;;;;;;;;5097558;28;20210;-74
2022/04/01 02:26:53;;;;;;;4.33;1.10;;;;;;;;;;5111438;28;20256;-75
2022/04/01 02:29:23;;;;;;;3.23;1.03;;;;;;;;;;5112290;28;20280;-74
2022/04/01 02:31:52;;;;;;;5.27;1.00;;;;;;;;;;5113261;28;20254;-75
2022/04/01 02:34:19;;;;;;;2.57;0.83;;;;;;;;;;5114512;28;20288;-75
2022/04/01 02:36:46;;;;;;;3.57;1.00;;;;;;;;;;5113907;28;20600;-74
2022/04/01 02:39:14;;;;;;;3.63;1.10;;;;;;;;;;5114310;28;20225;-74
2022/04/01 02:41:41;;;;;;;5.83;1.07;;;;;;;;;;5114003;28;20624;-76
2022/04/01 02:44:13;;;;;;;5.03;1.00;;;;;;;;;;5102272;28;20198;-75
2022/04/01 02:46:41;;;;;;;3.87;0.87;;;;;;;;;;5112126;28;20201;-75
2022/04/01 02:49:10;;;;;;;4.23;1.00;;;;;;;;;;5113011;28;20201;-75
2022/04/01 02:51:39;;;;;;;2.47;1.00;;;;;;;;;;5114302;28;20269;-74
2022/04/01 02:54:06;;;;;;;4.27;0.90;;;;;;;;;;5113373;28;20205;-75
2022/04/01 02:56:34;;;;;;;4.03;0.90;;;;;;;;;;5114125;28;20311;-75
2022/04/01 02:59:02;;;;;;;4.53;0.97;;;;;;;;;;5093917;28;20756;-77
2022/04/01 03:01:29;;;;;;;2.87;0.93;;;;;;;;;;5094445;28;20207;-74
2022/04/01 03:03:56;;;;;;;3.80;0.90;;;;;;;;;;5104257;28;20859;-77
2022/04/01 03:06:25;;;;;;;3.27;1.20;;;;;;;;;;5093896;28;20209;-76
2022/04/01 03:08:52;;;;;;;6.60;1.27;;;;;;;;;;5086635;28;20316;-76
2022/04/01 03:11:19;;;;;;;5.40;1.23;;;;;;;;;;5093487;28;20307;-76
2022/04/01 03:13:46;;;;;;;2.10;0.80;;;;;;;;;;5093322;28;20233;-77
2022/04/01 03:16:14;;;;;;;3.20;0.90;;;;;;;;;;5081956;28;20628;-75
2022/04/01 03:18:41;;;;;;;6.73;1.10;;;;;;;;;;5093700;28;20229;-76
2022/04/01 03:21:10;;;;;;;4.80;1.30;;;;;;;;;;5082726;28;20351;-75
2022/04/01 03:23:40;;;;;;;2.13;0.80;;;;;;;;;;5073444;28;20286;-75
2022/04/01 03:26:08;;;;;;;6.77;1.00;;;;;;;;;;5082907;28;20222;-74
2022/04/01 03:28:35;;;;;;;1.80;0.80;;;;;;;;;;5090806;28;20313;-76
2022/04/01 03:31:04;;;;;;;4.00;1.10;;;;;;;;;;5074567;28;20285;-76
2022/04/01 03:33:32;;;;;;;3.17;0.97;;;;;;;;;;5077846;28;20195;-76
2022/04/01 03:35:59;;;;;;;3.13;1.20;;;;;;;;;;5080157;28;20206;-78
2022/04/01 03:38:27;;;;;;;3.87;1.50;;;;;;;;;;5080306;28;20193;-76
2022/04/01 03:40:56;;;;;;;6.03;1.13;;;;;;;;;;5076667;28;20284;-74
2022/04/01 03:43:24;;;;;;;3.40;0.90;;;;;;;;;;5081889;28;20280;-76
2022/04/01 03:45:52;;;;;;;2.67;0.80;;;;;;;;;;5086425;28;20209;-74
2022/04/01 03:48:24;;;;;;;4.27;1.00;;;;;;;;;;5080832;28;20222;-74
2022/04/01 03:50:56;;;;;;;4.13;1.00;;;;;;;;;;5093004;28;20209;-77
2022/04/01 03:53:25;;;;;;;2.67;1.00;;;;;;;;;;5091449;28;20230;-74
2022/04/01 03:55:52;;;;;;;4.07;1.00;;;;;;;;;;5073272;28;20206;-76
2022/04/01 03:58:26;;;;;;;3.07;0.93;;;;;;;;;;5091374;28;20393;-76
2022/04/01 04:00:54;;;;;;;3.30;1.00;;;;;;;;;;5090361;28;20291;-76
2022/04/01 04:03:22;;;;;;;3.67;0.90;;;;;;;;;;5076149;28;20320;-76
2022/04/01 04:05:50;;;;;;;6.10;1.27;;;;;;;;;;5072342;28;20213;-76
2022/04/01 04:08:19;;;;;;;3.53;0.90;;;;;;;;;;5080531;28;20324;-76
2022/04/01 04:10:47;;;;;;;5.03;0.93;;;;;;;;;;5091893;28;20287;-76
2022/04/01 04:13:16;;;;;;;3.67;0.90;;;;;;;;;;5106242;28;20229;-76
2022/04/01 04:15:48;;;;;;;3.13;1.10;;;;;;;;;;5111933;28;20209;-76
2022/04/01 04:18:17;;;;;;;6.03;1.10;;;;;;;;;;5110676;28;20232;-76
2022/04/01 04:20:51;;;;;;;4.53;0.83;;;;;;;;;;5111181;28;20192;-76
2022/04/01 04:23:21;;;;;;;5.03;1.03;;;;;;;;;;5111933;28;20200;-77
2022/04/01 04:26:01;;;;;;;3.07;0.77;;;;;;;;;;5113174;28;20196;-76
2022/04/01 04:28:28;;;;;;;4.63;1.03;;;;;;;;;;5113052;28;20573;-76
2022/04/01 04:31:04;;;;;;;2.77;1.13;;;;;;;;;;5106437;28;20228;-76
2022/04/01 04:33:33;;;;;;;2.87;1.30;;;;;;;;;;5092227;28;20205;-76
2022/04/01 04:36:04;;;;;;;2.07;1.00;;;;;;;;;;5092058;28;20205;-76
2022/04/01 04:38:36;;;;;;;3.90;1.20;;;;;;;;;;5091541;28;20205;-76
2022/04/01 04:41:08;;;;;;;3.37;1.03;;;;;;;;;;5101609;28;20216;-76
2022/04/01 04:43:38;;;;;;;5.03;1.53;;;;;;;;;;5105952;28;20207;-76
2022/04/01 04:46:07;;;;;;;5.07;1.40;;;;;;;;;;5100890;28;20654;-76
2022/04/01 04:48:34;;;;;;;4.47;1.50;;;;;;;;;;5104474;28;20782;-76
2022/04/01 04:51:03;;;;;;;2.60;1.00;;;;;;;;;;5100263;28;20284;-76
2022/04/01 04:53:32;;;;;;;3.80;1.30;;;;;;;;;;5099599;28;20198;-76
2022/04/01 04:56:00;;;;;;;5.67;1.50;;;;;;;;;;5100057;28;20204;-77
2022/04/01 04:58:31;;;;;;;6.83;1.63;;;;;;;;;;5102828;28;20223;-76
2022/04/01 05:01:01;;;;;;;3.43;1.30;;;;;;;;;;5103614;28;20225;-76
2022/04/01 05:03:36;;;;;;;1.93;1.07;;;;;;;;;;5100864;28;20205;-76
2022/04/01 05:06:03;;;;;;;5.30;1.70;;;;;;;;;;5100329;28;20207;-80
2022/04/01 05:08:38;;;;;;;4.67;1.70;;;;;;;;;;5104545;28;20596;-77
2022/04/01 05:11:07;;;;;;;6.03;1.63;;;;;;;;;;5098003;28;20190;-77
2022/04/01 05:13:42;;;;;;;6.90;1.73;;;;;;;;;;5101792;28;20205;-76
2022/04/01 05:16:12;;;;;;;4.27;1.83;;;;;;;;;;5110329;28;20200;-77
2022/04/01 05:18:44;;;;;;;3.90;1.80;;;;;;;;;;5091180;28;20190;-76
2022/04/01 05:21:18;;;;;;;6.63;1.73;;;;;;;;;;5098344;28;20236;-76
2022/04/01 05:23:49;;;;;;;3.73;1.80;;;;;;;;;;5111791;28;20197;-76
2022/04/01 05:26:18;;;;;;;6.80;1.90;;;;;;;;;;5097104;28;20295;-76
2022/04/01 05:28:48;;;;;;;6.33;1.87;;;;;;;;;;5091606;28;20330;-77
2022/04/01 05:31:20;;;;;;;3.17;1.60;;;;;;;;;;5091876;28;20666;-77
2022/04/01 05:34:04;;;;;;;4.63;2.23;;;;;;;;;;5079284;28;20716;-75
2022/04/01 05:36:33;;;;;;;4.50;1.93;;;;;;;;;;5094353;28;20305;-76
2022/04/01 05:39:01;;;;;;;5.33;2.00;;;;;;;;;;5092673;28;20288;-76
2022/04/01 05:41:29;;;;;;;9.33;2.70;;;;;;;;;;5101203;28;20728;-76
2022/04/01 05:43:58;;;;;;;5.80;1.70;;;;;;;;;;5093425;28;20640;-76
2022/04/01 05:46:26;;;;;;;8.17;2.27;;;;;;;;;;5106692;28;20211;-76
2022/04/01 05:48:54;;;;;;;4.33;1.70;;;;;;;;;;5111088;28;20250;-76
2022/04/01 05:51:21;;;;;;;7.03;1.83;;;;;;;;;;5111639;28;20244;-76
2022/04/01 05:53:52;;;;;;;4.97;1.73;;;;;;;;;;5110622;28;20248;-76
2022/04/01 05:56:19;;;;;;;6.27;1.77;;;;;;;;;;5110610;28;20229;-76
2022/04/01 05:58:46;;;;;;;6.67;2.00;;;;;;;;;;5110816;28;20296;-76
2022/04/01 06:01:17;;;;;;;2.63;1.83;;;;;;;;;;5109819;28;20292;-75
2022/04/01 06:03:55;;;;;;;3.43;1.83;;;;;;;;;;5109057;28;20691;-76
2022/04/01 06:06:29;;;;;;;6.17;1.87;;;;;;;;;;5107097;28;20284;-76
2022/04/01 06:09:04;;;;;;;3.63;1.80;;;;;;;;;;5090660;28;20745;-75
2022/04/01 06:11:38;;;;;;;4.17;1.80;;;;;;;;;;5094184;28;20229;-76
2022/04/01 06:14:09;;;;;;;4.60;1.53;;;;;;;;;;5094458;28;20217;-76
2022/04/01 06:16:43;;;;;;;4.80;1.60;;;;;;;;;;5094928;28;20237;-76
2022/04/01 06:19:16;;;;;;;3.40;1.50;;;;;;;;;;5099661;28;20305;-76
2022/04/01 06:21:46;;;;;;;3.23;1.70;;;;;;;;;;5114447;28;20205;-76
2022/04/01 06:24:20;;;;;;;4.67;1.60;;;;;;;;;;5113190;28;20289;-75
2022/04/01 06:26:49;;;;;;;4.57;1.70;;;;;;;;;;5098135;28;20301;-76
2022/04/01 06:29:33;;;;;;;6.57;1.90;;;;;;;;;;5099103;28;20230;-76
2022/04/01 06:32:05;;;;;;;5.43;1.60;;;;;;;;;;5105987;28;20328;-76
2022/04/01 06:34:38;;;;;;;5.70;1.70;;;;;;;;;;5105963;28;20608;-76
2022/04/01 06:37:07;;;;;;;5.00;1.67;;;;;;;;;;5102248;28;20676;-75
2022/04/01 06:39:41;;;;;;;5.50;1.83;;;;;;;;;;5102699;28;20195;-76
2022/04/01 06:42:10;;;;;;;7.27;1.73;;;;;;;;;;5098041;28;20282;-77
2022/04/01 06:44:37;;;;;;;5.73;1.90;;;;;;;;;;5079878;28;20234;-76
2022/04/01 06:47:04;;;;;;;6.40;1.77;;;;;;;;;;5105527;28;20657;-77
2022/04/01 06:49:31;;;;;;;4.33;1.90;;;;;;;;;;5113867;28;20311;-76
2022/04/01 06:52:01;;;;;;;5.70;1.60;;;;;;;;;;5113014;28;20718;-76
2022/04/01 06:54:29;;;;;;;6.67;1.80;;;;;;;;;;5093465;28;20207;-74
2022/04/01 06:56:57;;;;;;;5.63;2.00;;;;;;;;;;5095787;28;20228;-76
2022/04/01 06:59:24;;;;;;;4.57;1.50;;;;;;;;;;5103679;28;20251;-77
2022/04/01 07:01:52;;;;;;;5.13;1.50;;;;;;;;;;5108648;28;20197;-76
2022/04/01 07:04:19;;;;;;;3.17;1.50;;;;;;;;;;5101398;28;20264;-78
2022/04/01 07:06:47;;;;;;;5.77;1.60;;;;;;;;;;5104158;28;20196;-76
2022/04/01 07:09:14;;;;;;;4.47;1.40;;;;;;;;;;5104368;28;20596;-76
2022/04/01 07:11:41;;;;;;;4.60;1.40;;;;;;;;;;5104236;28;20228;-76
2022/04/01 07:14:10;;;;;;;5.93;1.53;;;;;;;;;;5103238;28;20633;-73
2022/04/01 07:16:37;;;;;;;5.30;1.37;;;;;;;;;;5101509;28;20241;-74
2022/04/01 07:19:04;;;;;;;4.30;1.60;;;;;;;;;;5104475;28;20289;-76
2022/04/01 07:21:31;;;;;;;4.67;1.17;;;;;;;;;;5097954;28;20810;-76
2022/04/01 07:24:00;;;;;;;3.67;1.20;;;;;;;;;;5113270;28;20291;-76
2022/04/01 07:26:27;;;;;;;2.70;1.27;;;;;;;;;;5093631;28;20275;-77
2022/04/01 07:28:55;;;;;;;6.20;1.80;;;;;;;;;;5093220;28;20271;-76
2022/04/01 07:34:09;;;;;;;4.47;1.40;;;;;;;;;;5095333;28;20201;-77
2022/04/01 07:36:37;;;;;;;3.80;1.20;;;;;;;;;;5093328;28;20248;-77
2022/04/01 07:39:04;;;;;;;3.57;1.23;;;;;;;;;;5092894;28;20190;-77
2022/04/01 07:41:35;;;;;;;4.87;1.63;;;;;;;;;;5093351;28;20395;-77
2022/04/01 07:44:02;;;;;;;4.57;1.30;;;;;;;;;;5093027;28;20289;-77
2022/04/01 07:46:31;;;;;;;4.03;1.60;;;;;;;;;;5108063;28;20960;-78
2022/04/01 07:48:58;;;;;;;4.07;1.80;;;;;;;;;;5113150;28;20320;-78
2022/04/01 07:51:26;;;;;;;4.20;1.67;;;;;;;;;;5112979;28;20190;-77
2022/04/01 07:53:53;;;;;;;2.83;1.27;;;;;;;;;;5113215;28;20285;-77
2022/04/01 07:56:20;;;;;;;4.67;1.13;;;;;;;;;;5113381;28;20232;-77
2022/04/01 07:58:47;;;;;;;3.30;1.40;;;;;;;;;;5113447;28;20300;-77
2022/04/01 08:01:14;;;;;;;5.23;1.67;;;;;;;;;;5106832;28;20281;-77
2022/04/01 08:03:44;;;;;;;4.27;1.37;;;;;;;;;;5113699;28;20293;-76
2022/04/01 08:06:11;;;;;;;5.30;1.50;;;;;;;;;;5111736;28;20719;-77
2022/04/01 08:08:39;;;;;;;4.93;1.60;;;;;;;;;;5107057;28;20253;-75
2022/04/01 08:11:07;;;;;;;4.00;1.43;;;;;;;;;;5096547;28;20290;-76
2022/04/01 08:13:34;;;;;;;3.77;1.40;;;;;;;;;;5106601;28;20273;-76
2022/04/01 08:16:01;;;;;;;5.17;1.67;;;;;;;;;;5092199;28;20823;-77
2022/04/01 08:18:29;;;;;;;7.57;1.80;;;;;;;;;;5100245;28;20202;-77
2022/04/01 08:20:57;;;;;;;5.30;1.40;;;;;;;;;;5112579;28;20244;-77
2022/04/01 08:23:24;;;;;;;7.10;1.70;;;;;;;;;;5096819;28;20708;-77
2022/04/01 08:25:51;;;;;;;5.73;1.67;;;;;;;;;;5092592;28;20242;-77
2022/04/01 08:28:19;;;;;;;4.60;1.63;;;;;;;;;;5111376;28;20204;-76
2022/04/01 08:30:46;;;;;;;2.80;1.50;;;;;;;;;;5100266;28;20254;-77
2022/04/01 08:33:17;;;;;;;3.77;1.30;;;;;;;;;;5099397;28;20627;-77
2022/04/01 08:35:45;;;;;;;5.70;1.77;;;;;;;;;;5096924;28;20277;-77
2022/04/01 08:38:13;;;;;;;4.50;1.70;;;;;;;;;;5074603;28;20294;-77
2022/04/01 08:40:40;;;;;;;6.60;1.80;;;;;;;;;;5092132;28;20201;-76
2022/04/01 08:43:08;;;;;;;3.80;1.40;;;;;;;;;;5092527;28;20241;-76
2022/04/01 08:45:36;;;;;;;6.43;1.60;;;;;;;;;;5112348;28;20609;-76
2022/04/01 08:48:04;;;;;;;3.80;1.47;;;;;;;;;;5112637;28;20198;-76
2022/04/01 08:50:31;;;;;;;5.03;1.80;;;;;;;;;;5111303;28;20308;-76
2022/04/01 08:52:59;;;;;;;4.30;1.80;;;;;;;;;;5091668;28;20655;-76
2022/04/01 08:55:27;;;;;;;4.47;1.50;;;;;;;;;;5091430;28;20861;-77
2022/04/01 08:57:55;;;;;;;4.27;1.80;;;;;;;;;;5100880;28;20221;-77
2022/04/01 09:00:35;;;;;;;5.03;1.87;;;;;;;;;;5102062;28;20292;-77
2022/04/01 09:03:04;;;;;;;9.73;1.80;;;;;;;;;;5102026;28;20327;-77
2022/04/01 09:05:31;;;;;;;5.77;2.47;;;;;;;;;;5103670;28;20654;-77
2022/04/01 09:08:02;;;;;;;4.83;1.93;;;;;;;;;;5102139;28;20260;-76
2022/04/01 09:10:31;;;;;;;3.67;1.60;;;;;;;;;;5112425;28;20317;-77
2022/04/01 09:12:59;;;;;;;5.17;1.67;;;;;;;;;;5111622;28;20276;-76
2022/04/01 09:15:40;;;;;;;6.13;2.20;;;;;;;;;;5111419;28;20661;-77
2022/04/01 09:18:07;;;;;;;6.23;1.80;;;;;;;;;;5099425;28;20292;-77
2022/04/01 09:20:43;;;;;;;4.87;2.00;;;;;;;;;;5096003;28;20669;-77
2022/04/01 09:23:11;;;;;;;6.10;2.00;;;;;;;;;;5112155;28;20201;-77
2022/04/01 09:25:47;;;;;;;3.70;1.83;;;;;;;;;;5112165;28;20328;-77
2022/04/01 09:28:24;;;;;;;6.43;2.00;;;;;;;;;;5109313;28;20582;-77
2022/04/01 09:30:57;;;;;;;4.67;1.63;;;;;;;;;;5101362;28;20574;-77
2022/04/01 09:33:24;;;;;;;6.30;2.00;;;;;;;;;;5102356;28;20249;-77
2022/04/01 09:35:53;;;;;;;3.67;1.83;;;;;;;;;;5091951;28;20234;-78
2022/04/01 09:38:20;;;;;;;3.93;1.50;;;;;;;;;;5091786;28;20237;-77
2022/04/01 09:40:53;;;;;;;2.70;1.73;;;;;;;;;;5091962;28;20229;-77
2022/04/01 09:43:24;;;;;;;3.10;1.37;;;;;;;;;;5091552;28;20199;-77
2022/04/01 09:45:51;;;;;;;3.70;1.53;;;;;;;;;;5098442;28;20680;-78
2022/04/01 09:48:21;;;;;;;2.57;1.50;;;;;;;;;;5107708;28;20229;-77
2022/04/01 09:50:55;;;;;;;3.13;1.40;;;;;;;;;;5096147;28;20300;-77
2022/04/01 09:53:25;;;;;;;3.97;1.40;;;;;;;;;;5095209;28;20205;-77
2022/04/01 09:55:54;;;;;;;5.17;1.50;;;;;;;;;;5115407;28;20205;-77
2022/04/01 09:58:22;;;;;;;5.40;1.77;;;;;;;;;;5104019;28;20257;-77
2022/04/01 10:00:51;;;;;;;4.93;1.50;;;;;;;;;;5112809;28;20194;-76
2022/04/01 10:03:19;;;;;;;4.37;1.47;;;;;;;;;;5115407;28;20233;-77
2022/04/01 10:05:47;;;;;;;4.17;1.50;;;;;;;;;;5105682;28;20687;-77
2022/04/01 10:08:14;;;;;;;6.60;1.90;;;;;;;;;;5095677;28;20303;-77
2022/04/01 10:10:42;;;;;;;3.10;1.50;;;;;;;;;;5095403;28;20225;-77
2022/04/01 10:13:12;;;;;;;4.40;1.70;;;;;;;;;;5094982;28;20198;-77
2022/04/01 10:15:42;;;;;;;3.67;1.70;;;;;;;;;;5094492;28;20233;-77
2022/04/01 10:18:09;;;;;;;4.50;1.60;;;;;;;;;;5100351;28;20226;-77
2022/04/01 10:20:38;;;;;;;3.67;1.43;;;;;;;;;;5104983;28;20229;-78
2022/04/01 10:23:06;;;;;;;6.97;1.60;;;;;;;;;;5094828;28;20241;-78
2022/04/01 10:25:36;;;;;;;4.07;1.40;;;;;;;;;;5094774;28;20765;-77
2022/04/01 10:28:04;;;;;;;6.27;1.80;;;;;;;;;;5096151;28;20207;-77
2022/04/01 10:30:35;;;;;;;5.23;1.53;;;;;;;;;;5100874;28;20314;-77
2022/04/01 10:33:06;;;;;;;3.30;1.40;;;;;;;;;;5102420;28;20291;-77
2022/04/01 10:35:35;;;;;;;3.87;1.50;;;;;;;;;;5113313;28;20210;-77
2022/04/01 10:38:16;;;;;;;3.83;1.37;;;;;;;;;;5110237;28;20197;-77
2022/04/01 10:40:45;;;;;;;3.43;1.30;;;;;;;;;;5109046;28;20243;-79
2022/04/01 10:43:13;;;;;;;3.43;1.43;;;;;;;;;;5108341;28;20203;-77
2022/04/01 10:45:42;;;;;;;5.00;1.80;;;;;;;;;;5114296;28;20252;-76
2022/04/01 10:54:01;;;;;;;5.87;1.40;;;;;;;;;;5101421;28;20197;-76
2022/04/01 10:56:29;;;;;;;5.00;1.77;;;;;;;;;;5113565;28;20244;-76
2022/04/01 10:59:04;;;;;;;3.67;1.73;;;;;;;;;;5113274;28;20301;-77
2022/04/01 11:01:34;;;;;;;3.93;1.70;;;;;;;;;;5113224;28;20272;-77
2022/04/01 11:04:02;;;;;;;3.83;1.50;;;;;;;;;;5114469;28;20291;-76
2022/04/01 11:06:30;;;;;;;3.63;1.93;;;;;;;;;;5108709;28;20197;-75
2022/04/01 11:08:57;;;;;;;3.83;1.70;;;;;;;;;;5093195;28;20238;-75
2022/04/01 11:11:25;;;;;;;4.50;1.80;;;;;;;;;;5093057;28;20229;-75
2022/04/01 11:14:14;;;;;;;3.77;1.43;;;;;;;;;;5095367;28;20245;-75
2022/04/01 11:16:50;;;;;;;4.17;1.70;;;;;;;;;;5088602;28;20205;-75
2022/04/01 11:19:18;;;;;;;3.63;1.67;;;;;;;;;;5101444;28;20202;-75
2022/04/01 11:21:46;;;;;;;2.73;1.27;;;;;;;;;;5098950;28;20202;-75
2022/04/01 11:24:30;;;;;;;2.50;1.20;;;;;;;;;;5096526;28;20228;-75
2022/04/01 11:26:57;;;;;;;4.13;1.40;;;;;;;;;;5113172;28;20197;-75
2022/04/01 11:29:25;;;;;;;5.87;1.50;;;;;;;;;;5105762;28;20755;-76
2022/04/01 11:32:02;;;;;;;4.83;2.00;;;;;;;;;;5094432;28;20251;-76
2022/04/01 11:34:30;;;;;;;2.90;1.63;;;;;;;;;;5109130;28;20224;-76
2022/04/01 11:36:59;;;;;;;3.80;1.90;;;;;;;;;;5101870;28;20301;-75
2022/04/01 11:39:26;;;;;;;5.97;2.13;;;;;;;;;;5106912;28;20232;-75
2022/04/01 11:41:54;;;;;;;6.17;2.00;;;;;;;;;;5113220;28;20228;-75
2022/04/01 11:44:21;;;;;;;5.70;2.57;;;;;;;;;;5113185;28;20208;-75
2022/04/01 11:46:58;;;;;;;6.00;2.20;;;;;;;;;;5113068;28;20574;-75
2022/04/01 11:49:29;;;;;;;3.57;2.07;;;;;;;;;;5113383;28;20204;-75
2022/04/01 11:51:57;;;;;;;4.83;2.00;;;;;;;;;;5093874;28;20228;-75
2022/04/01 11:54:24;;;;;;;7.00;2.27;;;;;;;;;;5094576;28;20278;-76
2022/04/01 11:56:55;;;;;;;7.67;2.50;;;;;;;;;;5101020;28;20224;-75
2022/04/01 11:59:25;;;;;;;5.87;1.93;;;;;;;;;;5097769;28;20309;-75
2022/04/01 12:01:56;;;;;;;5.27;2.00;;;;;;;;;;5093888;28;20288;-76
2022/04/01 12:04:30;;;;;;;3.53;1.83;;;;;;;;;;5112158;28;20197;-77
2022/04/01 12:09:46;;;;;;;4.23;1.90;;;;;;;;;;5112040;28;20862;-77
2022/04/01 12:12:13;;;;;;;3.00;1.60;;;;;;;;;;5092390;28;20650;-76
2022/04/01 12:14:41;;;;;;;3.53;1.80;;;;;;;;;;5103421;28;20205;-76
2022/04/01 12:17:10;;;;;;;4.77;1.70;;;;;;;;;;5110049;28;20289;-76
2022/04/01 12:19:38;;;;;;;5.40;2.00;;;;;;;;;;5111327;28;20218;-76
2022/04/01 12:22:08;;;;;;;5.43;1.93;;;;;;;;;;5094088;28;20560;-76
2022/04/01 12:24:37;;;;;;;4.47;1.77;;;;;;;;;;5112962;28;20205;-76
2022/04/01 12:27:06;;;;;;;3.80;1.83;;;;;;;;;;5097468;28;20194;-77
2022/04/01 12:29:34;;;;;;;5.10;2.03;;;;;;;;;;5108955;28;20197;-76
2022/04/01 12:32:03;;;;;;;7.10;2.10;;;;;;;;;;5105979;28;20213;-77
2022/04/01 12:34:31;;;;;;;3.17;2.27;;;;;;;;;;5104789;28;20193;-77
2022/04/01 12:37:01;;;;;;;5.30;2.10;;;;;;;;;;5109393;28;20308;-77
2022/04/01 12:39:28;;;;;;;3.67;2.20;;;;;;;;;;5112375;28;20197;-78
2022/04/01 12:41:57;;;;;;;5.77;2.33;;;;;;;;;;5109730;28;20224;-77
2022/04/01 12:44:25;;;;;;;3.80;1.87;;;;;;;;;;5092544;28;20230;-77
2022/04/01 12:46:52;;;;;;;5.73;2.10;;;;;;;;;;5092564;28;20203;-77
2022/04/01 12:49:20;;;;;;;4.73;2.30;;;;;;;;;;5098242;28;20306;-76
2022/04/01 12:51:52;;;;;;;5.17;2.40;;;;;;;;;;5111580;28;20230;-75
2022/04/01 12:54:31;;;;;;;4.50;2.17;;;;;;;;;;5112269;28;20247;-76
2022/04/01 12:56:59;;;;;;;4.77;2.07;;;;;;;;;;5107924;28;20203;-77
2022/04/01 12:59:27;;;;;;;5.00;2.40;;;;;;;;;;5111034;28;20265;-75
2022/04/01 13:01:58;;;;;;;3.23;2.00;;;;;;;;;;5108234;28;20190;-76
2022/04/01 13:04:25;;;;;;;3.87;2.10;;;;;;;;;;5105411;28;20284;-77
2022/04/01 13:07:12;;;;;;;3.90;2.10;;;;;;;;;;5091564;28;20457;-75
2022/04/01 13:09:49;;;;;;;3.77;2.30;;;;;;;;;;5091158;28;20752;-75
2022/04/01 13:12:16;;;;;;;5.30;2.10;;;;;;;;;;5092910;28;20598;-77
2022/04/01 13:14:43;;;;;;;6.40;2.50;;;;;;;;;;5098998;28;20290;-76
2022/04/01 13:17:12;;;;;;;4.50;2.20;;;;;;;;;;5091755;28;20195;-76
2022/04/01 13:19:42;;;;;;;4.70;2.23;;;;;;;;;;5091806;28;20283;-77
2022/04/01 13:22:09;;;;;;;4.67;2.10;;;;;;;;;;5113304;28;20294;-77
2022/04/01 13:24:37;;;;;;;8.87;2.50;;;;;;;;;;5102326;28;20248;-77
2022/04/01 13:27:08;;;;;;;6.90;2.23;;;;;;;;;;5099141;28;20289;-77
2022/04/01 13:29:35;;;;;;;7.07;2.10;;;;;;;;;;5116446;28;20293;-78
2022/04/01 13:32:02;;;;;;;6.37;2.00;;;;;;;;;;5111738;28;20719;-77
2022/04/01 13:34:30;;;;;;;5.43;2.00;;;;;;;;;;5113255;28;20208;-78
2022/04/01 13:36:57;;;;;;;5.17;2.30;;;;;;;;;;5111041;28;20277;-77
2022/04/01 13:39:25;;;;;;;4.93;2.03;;;;;;;;;;5116149;28;20309;-78
2022/04/01 13:41:52;;;;;;;6.03;2.10;;;;;;;;;;5102311;28;20199;-77
2022/04/01 13:44:21;;;;;;;6.60;2.37;;;;;;;;;;5095511;28;20201;-77
2022/04/01 13:46:48;;;;;;;8.73;2.27;;;;;;;;;;5098000;28;20296;-77
2022/04/01 13:49:15;;;;;;;3.57;2.10;;;;;;;;;;5104661;28;20263;-76
2022/04/01 13:51:43;;;;;;;5.70;2.10;;;;;;;;;;5095079;28;20809;-77
2022/04/01 13:54:10;;;;;;;5.20;2.90;;;;;;;;;;5095161;28;20202;-77
2022/04/01 13:56:38;;;;;;;6.03;2.20;;;;;;;;;;5100709;28;20226;-77
2022/04/01 13:59:06;;;;;;;4.60;2.00;;;;;;;;;;5096503;28;20623;-77
2022/04/01 14:01:35;;;;;;;4.30;2.20;;;;;;;;;;5094756;28;20208;-77
2022/04/01 14:04:02;;;;;;;6.40;2.40;;;;;;;;;;5100525;28;20204;-76
2022/04/01 14:06:30;;;;;;;5.33;2.30;;;;;;;;;;5111566;28;20204;-76
2022/04/01 14:08:58;;;;;;;4.33;2.20;;;;;;;;;;5097864;28;20621;-75
2022/04/01 14:11:26;;;;;;;4.70;2.40;;;;;;;;;;5110632;28;20243;-76
2022/04/01 14:13:53;;;;;;;4.87;2.30;;;;;;;;;;5095275;28;20263;-76
2022/04/01 14:16:20;;;;;;;4.67;2.47;;;;;;;;;;5095003;28;20227;-76
2022/04/01 14:18:49;;;;;;;3.20;2.40;;;;;;;;;;5099599;28;20235;-76
2022/04/01 14:21:16;;;;;;;6.10;2.60;;;;;;;;;;5104318;28;20287;-77
2022/04/01 14:23:44;;;;;;;6.50;2.60;;;;;;;;;;5105952;28;20292;-76
2022/04/01 14:26:11;;;;;;;6.80;2.70;;;;;;;;;;5095071;28;20201;-76
2022/04/01 14:28:38;;;;;;;5.87;2.33;;;;;;;;;;5101592;28;20192;-76
2022/04/01 14:31:07;;;;;;;4.53;2.43;;;;;;;;;;5094153;28;20314;-76
2022/04/01 14:33:34;;;;;;;8.03;2.70;;;;;;;;;;5094406;28;20245;-76
2022/04/01 14:36:03;;;;;;;5.27;2.97;;;;;;;;;;5095578;28;20702;-76
2022/04/01 14:38:30;;;;;;;7.20;3.23;;;;;;;;;;5112228;28;20293;-76
2022/04/01 14:40:58;;;;;;;7.83;2.97;;;;;;;;;;5100860;28;20232;-76
2022/04/01 14:43:25;;;;;;;5.70;3.13;;;;;;;;;;5114979;28;20205;-76
2022/04/01 14:45:53;;;;;;;4.87;2.70;;;;;;;;;;5096396;28;20200;-76
2022/04/01 14:48:20;;;;;;;7.10;3.00;;;;;;;;;;5094930;28;20702;-76
2022/04/01 14:50:47;;;;;;;5.70;2.37;;;;;;;;;;5113714;28;20290;-77
2022/04/01 14:53:17;;;;;;;6.10;3.50;;;;;;;;;;5111163;28;20336;-76
2022/04/01 14:55:44;;;;;;;6.17;3.50;;;;;;;;;;5096254;28;20208;-77
2022/04/01 14:58:12;;;;;;;6.43;2.83;;;;;;;;;;5093940;28;20200;-76
2022/04/01 15:00:40;;;;;;;5.70;2.27;;;;;;;;;;5104632;28;20205;-76
2022/04/01 15:03:07;;;;;;;5.27;2.50;;;;;;;;;;5109497;28;20251;-77
2022/04/01 15:05:35;;;;;;;5.40;2.33;;;;;;;;;;5105179;28;20204;-76
2022/04/01 15:08:02;;;;;;;5.30;2.37;;;;;;;;;;5112872;28;20234;-76